createdAt,value
2016-10-24T09:29:52.397Z,1029.63
2016-10-24T09:30:52.242Z,1029.61
2016-10-24T09:31:52.238Z,1029.54
2016-10-24T09:32:52.231Z,1029.46
2016-10-24T09:33:52.230Z,1029.33
2016-10-24T09:34:52.225Z,1029.19
2016-10-24T09:35:52.219Z,1029.05
2016-10-24T09:36:52.213Z,1028.93
2016-10-24T09:37:52.213Z,1028.8
2016-10-24T09:38:52.205Z,1028.89
2016-10-24T09:39:52.202Z,1029.02
2016-10-24T09:40:52.200Z,1029.15
2016-10-24T09:41:52.197Z,1029.22
2016-10-24T09:42:52.188Z,1029.35
2016-10-24T09:43:52.186Z,1029.51
2016-10-24T09:44:52.179Z,1029.54
2016-10-24T09:45:52.177Z,1029.63
2016-10-24T09:46:52.173Z,1029.74
2016-10-24T09:47:52.168Z,1029.75
2016-10-24T09:48:52.162Z,1029.82
2016-10-24T09:49:52.157Z,1029.91
2016-10-24T09:50:52.152Z,1030.05
2016-10-24T09:51:52.149Z,1030.06
2016-10-24T09:52:52.143Z,1030.3
2016-10-24T09:53:52.141Z,1030.32
2016-10-24T09:54:52.134Z,1030.43
2016-10-24T09:55:52.132Z,1030.44
2016-10-24T09:56:52.657Z,1030.38
2016-10-24T09:57:52.248Z,1030.21
2016-10-24T09:58:52.118Z,1030.14
2016-10-24T09:59:52.110Z,1030.03
2016-10-24T10:00:52.107Z,1029.83
2016-10-24T10:01:52.102Z,1029.67
2016-10-24T10:02:52.097Z,1029.48
2016-10-24T10:03:52.094Z,1029.3
2016-10-24T10:04:52.086Z,1029.18
2016-10-24T10:05:52.084Z,1029.12
2016-10-24T10:06:52.076Z,1029.13
2016-10-24T10:07:52.074Z,1029.17
2016-10-24T10:08:52.068Z,1029.17
2016-10-24T10:09:52.065Z,1029.05
2016-10-24T10:10:52.061Z,1028.94
2016-10-24T10:11:52.054Z,1028.8
2016-10-24T10:12:52.051Z,1028.75
2016-10-24T10:13:52.045Z,1028.67
2016-10-24T10:14:52.043Z,1028.67
2016-10-24T10:15:52.039Z,1028.69
2016-10-24T10:16:52.033Z,1028.77
2016-10-24T10:17:52.029Z,1028.87
2016-10-24T10:18:52.027Z,1028.99
2016-10-24T10:19:52.021Z,1029.07
2016-10-24T10:20:52.019Z,1029.21
2016-10-24T10:21:52.016Z,1029.35
2016-10-24T10:22:52.013Z,1029.46
2016-10-24T10:23:52.007Z,1029.54
2016-10-24T10:24:52.004Z,1029.62
2016-10-24T10:25:52.001Z,1029.6
2016-10-24T10:26:51.995Z,1029.55
2016-10-24T10:27:51.989Z,1029.55
2016-10-24T10:28:51.986Z,1029.48
2016-10-24T10:29:51.981Z,1029.44
2016-10-24T10:30:51.978Z,1029.4
2016-10-24T10:31:51.975Z,1029.33
2016-10-24T10:32:51.969Z,1029.28
2016-10-24T10:33:52.215Z,1029.35
2016-10-24T10:34:51.960Z,1029.39
2016-10-24T10:35:51.958Z,1029.46
2016-10-24T10:36:51.954Z,1029.47
2016-10-24T10:38:51.943Z,1029.37
2016-10-24T10:39:52.139Z,1029.36
2016-10-24T10:40:51.936Z,1029.39
2016-10-24T10:41:51.933Z,1029.42
2016-10-24T10:42:51.929Z,1029.42
2016-10-24T10:43:51.924Z,1029.39
2016-10-24T10:44:51.921Z,1029.42
2016-10-24T10:45:51.916Z,1029.49
2016-10-24T10:46:51.913Z,1029.55
2016-10-24T10:47:51.908Z,1029.59
2016-10-24T10:48:51.903Z,1029.67
2016-10-24T10:49:51.899Z,1029.7
2016-10-24T10:50:51.894Z,1029.75
2016-10-24T10:51:51.891Z,1029.87
2016-10-24T10:52:51.888Z,1029.97
2016-10-24T10:53:51.881Z,1030.14
2016-10-24T10:54:51.877Z,1030.27
2016-10-24T10:55:51.874Z,1030.4
2016-10-24T10:56:51.867Z,1030.54
2016-10-24T10:57:51.864Z,1030.65
2016-10-24T10:58:51.861Z,1030.76
2016-10-24T10:59:51.856Z,1030.79
2016-10-24T11:00:51.848Z,1030.77
2016-10-24T11:01:51.844Z,1030.79
2016-10-24T11:02:51.840Z,1030.84
2016-10-24T11:03:51.835Z,1030.85
2016-10-24T11:04:51.832Z,1030.91
2016-10-24T11:05:51.827Z,1030.95
2016-10-24T11:06:51.823Z,1030.96
2016-10-24T11:07:51.816Z,1030.99
2016-10-24T11:08:51.811Z,1030.99
2016-10-24T11:09:51.808Z,1031.03
2016-10-24T11:10:51.803Z,1031.04
2016-10-24T11:11:51.796Z,1031.05
2016-10-24T11:12:51.791Z,1031.05
2016-10-24T11:13:51.786Z,1031.03
2016-10-24T11:14:51.778Z,1031.04
2016-10-24T11:15:51.774Z,1031.12
2016-10-24T11:16:51.771Z,1031.15
2016-10-24T11:17:51.764Z,1031.21
2016-10-24T11:18:51.758Z,1031.25
2016-10-24T11:19:51.752Z,1031.22
2016-10-24T11:20:51.746Z,1031.25
2016-10-24T11:21:51.743Z,1031.19
2016-10-24T11:22:51.968Z,1031.18
2016-10-24T11:23:51.729Z,1031.2
2016-10-24T11:24:52.178Z,1031.24
2016-10-24T11:25:51.719Z,1031.25
2016-10-24T11:26:51.714Z,1031.26
2016-10-24T11:27:51.707Z,1031.3
2016-10-24T11:28:51.700Z,1031.33
2016-10-24T11:29:51.698Z,1031.35
2016-10-24T11:30:51.688Z,1031.35
2016-10-24T11:31:51.685Z,1031.41
2016-10-24T11:32:51.679Z,1031.44
2016-10-24T11:33:51.672Z,1031.43
2016-10-24T11:34:51.667Z,1031.38
2016-10-24T11:35:51.661Z,1031.35
2016-10-24T11:36:51.652Z,1031.38
2016-10-24T11:37:51.647Z,1031.4
2016-10-24T11:38:51.643Z,1031.41
2016-10-24T11:39:51.638Z,1031.43
2016-10-24T11:40:51.630Z,1031.4
2016-10-24T11:41:51.622Z,1031.4
2016-10-24T11:42:51.616Z,1031.38
2016-10-24T11:43:51.612Z,1031.39
2016-10-24T11:44:51.604Z,1031.39
2016-10-24T11:45:51.599Z,1031.35
2016-10-24T11:47:51.585Z,1031.39
2016-10-24T11:49:52.126Z,1031.37
2016-10-24T11:50:51.569Z,1031.28
2016-10-24T11:51:51.563Z,1031.31
2016-10-24T11:52:51.556Z,1031.33
2016-10-24T11:53:51.550Z,1031.33
2016-10-24T11:54:51.544Z,1031.32
2016-10-24T11:55:51.535Z,1031.35
2016-10-24T11:56:51.731Z,1031.34
2016-10-24T11:57:51.523Z,1031.39
2016-10-24T11:58:51.518Z,1031.45
2016-10-24T11:59:51.510Z,1031.53
2016-10-24T12:00:51.506Z,1031.53
2016-10-24T12:01:51.500Z,1031.55
2016-10-24T12:02:51.491Z,1031.53
2016-10-24T12:03:51.487Z,1031.51
2016-10-24T12:04:51.481Z,1031.55
2016-10-24T12:05:51.473Z,1031.57
2016-10-24T12:06:51.468Z,1031.51
2016-10-24T12:07:51.461Z,1031.5
2016-10-24T12:08:51.453Z,1031.5
2016-10-24T12:09:51.501Z,1031.45
2016-10-24T12:10:51.440Z,1031.45
2016-10-24T12:11:51.437Z,1031.44
2016-10-24T12:12:51.427Z,1031.38
2016-10-24T12:13:51.424Z,1031.36
2016-10-24T12:14:51.414Z,1031.32
2016-10-24T12:15:51.410Z,1031.31
2016-10-24T12:16:51.403Z,1031.31
2016-10-24T12:17:51.398Z,1031.32
2016-10-24T12:18:51.391Z,1031.24
2016-10-24T12:19:51.385Z,1031.13
2016-10-24T12:20:51.378Z,1031.1
2016-10-24T12:21:51.372Z,1031.08
2016-10-24T12:22:51.366Z,1031.08
2016-10-24T12:23:51.360Z,1031.08
2016-10-24T12:24:51.351Z,1031.08
2016-10-24T12:25:51.347Z,1031.12
2016-10-24T12:26:51.341Z,1031.09
2016-10-24T12:27:51.333Z,1030.99
2016-10-24T12:28:51.329Z,1030.89
2016-10-24T12:29:51.321Z,1030.81
2016-10-24T12:30:51.316Z,1030.64
2016-10-24T12:31:51.310Z,1030.59
2016-10-24T12:32:51.305Z,1030.63
2016-10-24T12:33:51.298Z,1030.53
2016-10-24T12:34:51.295Z,1030.51
2016-10-24T12:35:51.287Z,1030.53
2016-10-24T12:36:51.280Z,1030.55
2016-10-24T12:37:51.276Z,1030.58
2016-10-24T12:38:53.432Z,1030.59
2016-10-24T12:39:51.264Z,1030.61
2016-10-24T12:40:51.260Z,1030.6
2016-10-24T12:41:51.258Z,1030.59
2016-10-24T12:42:51.246Z,1030.57
2016-10-24T12:43:51.241Z,1030.53
2016-10-24T12:44:51.238Z,1030.5
2016-10-24T12:45:51.233Z,1030.51
2016-10-24T12:46:51.223Z,1030.54
2016-10-24T12:47:51.220Z,1030.56
2016-10-24T12:48:51.213Z,1030.58
2016-10-24T12:49:51.209Z,1030.58
2016-10-24T12:50:51.203Z,1030.61
2016-10-24T12:51:51.197Z,1030.55
2016-10-24T12:52:51.192Z,1030.59
2016-10-24T12:53:51.186Z,1030.6
2016-10-24T12:54:51.182Z,1030.6
2016-10-24T12:55:51.174Z,1030.59
2016-10-24T12:56:51.170Z,1030.64
2016-10-24T12:57:51.164Z,1030.68
2016-10-24T12:58:51.160Z,1030.73
2016-10-24T12:59:51.151Z,1030.75
2016-10-24T13:00:51.147Z,1030.75
2016-10-24T13:01:51.140Z,1030.79
2016-10-24T13:02:51.139Z,1030.78
2016-10-24T13:03:51.130Z,1030.74
2016-10-24T13:04:51.123Z,1030.74
2016-10-24T13:05:52.068Z,1030.71
2016-10-24T13:06:51.112Z,1030.77
2016-10-24T13:07:51.907Z,1030.74
2016-10-24T13:08:51.101Z,1030.74
2016-10-24T13:09:51.095Z,1030.77
2016-10-24T13:10:51.090Z,1030.82
2016-10-24T13:11:51.085Z,1030.86
2016-10-24T13:12:51.080Z,1030.87
2016-10-24T13:13:51.073Z,1030.98
2016-10-24T13:14:51.069Z,1031
2016-10-24T13:15:51.063Z,1031.09
2016-10-24T13:16:51.055Z,1031.13
2016-10-24T13:17:51.050Z,1031.15
2016-10-24T13:18:51.044Z,1031.16
2016-10-24T13:19:51.038Z,1031.19
2016-10-24T13:20:51.032Z,1031.17
2016-10-24T13:21:51.028Z,1031.25
2016-10-24T13:22:51.019Z,1031.26
2016-10-24T13:23:51.013Z,1031.29
2016-10-24T13:24:51.006Z,1031.3
2016-10-24T13:25:51.000Z,1031.36
2016-10-24T13:26:50.995Z,1031.43
2016-10-24T13:27:50.987Z,1031.48
2016-10-24T13:28:50.983Z,1031.41
2016-10-24T13:29:50.979Z,1031.49
2016-10-24T13:30:50.971Z,1031.54
2016-10-24T13:31:50.964Z,1031.58
2016-10-24T13:32:50.958Z,1031.66
2016-10-24T13:33:50.951Z,1031.75
2016-10-24T13:34:50.943Z,1031.81
2016-10-24T13:35:50.939Z,1031.88
2016-10-24T13:36:50.931Z,1031.92
2016-10-24T13:37:50.926Z,1031.91
2016-10-24T13:38:50.919Z,1031.94
2016-10-24T13:39:50.917Z,1031.99
2016-10-24T13:40:50.906Z,1032.02
2016-10-24T13:41:50.897Z,1032
2016-10-24T13:42:50.891Z,1032.08
2016-10-24T13:43:50.887Z,1032.14
2016-10-24T13:44:50.879Z,1032.21
2016-10-24T13:45:50.871Z,1032.25
2016-10-24T13:46:50.864Z,1032.35
2016-10-24T13:47:50.860Z,1032.48
2016-10-24T13:48:50.862Z,1032.56
2016-10-24T13:49:50.844Z,1032.61
2016-10-24T13:50:50.838Z,1032.64
2016-10-24T13:51:50.831Z,1032.68
2016-10-24T13:52:50.827Z,1032.7
2016-10-24T13:53:50.820Z,1032.73
2016-10-24T13:54:51.132Z,1032.71
2016-10-24T13:55:51.004Z,1032.74
2016-10-24T13:56:50.796Z,1032.68
2016-10-24T13:57:50.789Z,1032.69
2016-10-24T13:58:50.784Z,1032.71
2016-10-24T13:59:50.775Z,1032.68
2016-10-24T14:00:50.770Z,1032.74
2016-10-24T14:01:50.763Z,1032.74
2016-10-24T14:02:50.753Z,1032.79
2016-10-24T14:03:50.748Z,1032.77
2016-10-24T14:04:50.739Z,1032.77
2016-10-24T14:05:50.735Z,1032.78
2016-10-24T14:06:50.727Z,1032.79
2016-10-24T14:07:50.717Z,1032.78
2016-10-24T14:08:50.710Z,1032.78
2016-10-24T14:09:50.704Z,1032.77
2016-10-24T14:10:50.695Z,1032.76
2016-10-24T14:11:50.689Z,1032.77
2016-10-24T14:12:50.682Z,1032.79
2016-10-24T14:13:50.675Z,1032.75
2016-10-24T14:14:50.667Z,1032.72
2016-10-24T14:15:50.661Z,1032.73
2016-10-24T14:16:50.650Z,1032.75
2016-10-24T14:17:50.642Z,1032.71
2016-10-24T14:18:50.638Z,1032.7
2016-10-24T14:19:50.628Z,1032.75
2016-10-24T14:20:50.621Z,1032.8
2016-10-24T14:21:50.616Z,1032.79
2016-10-24T14:22:50.606Z,1032.74
2016-10-24T14:23:50.601Z,1032.8
2016-10-24T14:24:50.592Z,1032.79
2016-10-24T14:25:50.886Z,1032.82
2016-10-24T14:26:50.575Z,1032.85
2016-10-24T14:27:50.570Z,1032.85
2016-10-24T14:28:50.559Z,1032.9
2016-10-24T14:29:50.552Z,1032.86
2016-10-24T14:30:50.546Z,1032.91
2016-10-24T14:31:50.539Z,1032.93
2016-10-24T14:32:51.379Z,1032.95
2016-10-24T14:33:50.523Z,1032.95
2016-10-24T14:34:50.515Z,1032.95
2016-10-24T14:35:50.505Z,1032.95
2016-10-24T14:36:50.497Z,1032.92
2016-10-24T14:37:51.043Z,1032.94
2016-10-24T14:38:50.484Z,1032.93
2016-10-24T14:39:50.473Z,1032.93
2016-10-24T14:40:50.469Z,1032.96
2016-10-24T14:41:50.460Z,1032.91
2016-10-24T14:42:50.452Z,1032.95
2016-10-24T14:43:50.442Z,1032.97
2016-10-24T14:44:50.434Z,1033
2016-10-24T14:45:50.428Z,1032.94
2016-10-24T14:46:50.420Z,1032.94
2016-10-24T14:47:50.410Z,1032.95
2016-10-24T14:48:50.402Z,1032.97
2016-10-24T14:49:50.394Z,1032.94
2016-10-24T14:50:50.387Z,1032.94
2016-10-24T14:51:50.381Z,1032.96
2016-10-24T14:52:50.371Z,1032.99
2016-10-24T14:53:50.365Z,1032.98
2016-10-24T14:54:50.355Z,1033
2016-10-24T14:55:50.347Z,1033
2016-10-24T14:56:50.340Z,1033.02
2016-10-24T14:57:50.329Z,1033.05
2016-10-24T14:58:50.324Z,1033.05
2016-10-24T14:59:50.316Z,1033.04
2016-10-24T15:00:50.305Z,1033.07
2016-10-24T15:01:50.299Z,1033.11
2016-10-24T15:02:50.288Z,1033.14
2016-10-24T15:03:50.283Z,1033.14
2016-10-24T15:04:50.275Z,1033.13
2016-10-24T15:05:50.265Z,1033.17
2016-10-24T15:06:50.257Z,1033.22
2016-10-24T15:07:50.252Z,1033.23
2016-10-24T15:08:51.547Z,1033.18
2016-10-24T15:09:50.236Z,1033.17
2016-10-24T15:10:50.227Z,1033.22
2016-10-24T15:11:50.218Z,1033.21
2016-10-24T15:12:50.208Z,1033.22
2016-10-24T15:13:50.203Z,1033.26
2016-10-24T15:14:50.195Z,1033.28
2016-10-24T15:15:50.183Z,1033.27
2016-10-24T15:16:50.176Z,1033.3
2016-10-24T15:17:51.155Z,1033.28
2016-10-24T15:18:50.159Z,1033.31
2016-10-24T15:19:50.824Z,1033.34
2016-10-24T15:20:50.144Z,1033.31
2016-10-24T15:21:50.137Z,1033.3
2016-10-24T15:22:50.127Z,1033.31
2016-10-24T15:23:50.119Z,1033.3
2016-10-24T15:24:50.112Z,1033.26
2016-10-24T15:25:50.101Z,1033.3
2016-10-24T15:26:50.092Z,1033.3
2016-10-24T15:27:50.087Z,1033.3
2016-10-24T15:28:50.078Z,1033.24
2016-10-24T15:29:50.069Z,1033.26
2016-10-24T15:30:50.060Z,1033.31
2016-10-24T15:31:50.052Z,1033.25
2016-10-24T15:32:50.045Z,1033.28
2016-10-24T15:33:50.034Z,1033.27
2016-10-24T15:34:50.028Z,1033.27
2016-10-24T15:35:50.019Z,1033.27
2016-10-24T15:36:50.009Z,1033.26
2016-10-24T15:37:50.001Z,1033.23
2016-10-24T15:38:49.997Z,1033.23
2016-10-24T15:39:49.984Z,1033.27
2016-10-24T15:40:49.975Z,1033.27
2016-10-24T15:41:51.167Z,1033.3
2016-10-24T15:42:49.960Z,1033.29
2016-10-24T15:43:49.950Z,1033.26
2016-10-24T15:44:49.945Z,1033.23
2016-10-24T15:45:49.934Z,1033.22
2016-10-24T15:46:49.927Z,1033.18
2016-10-24T15:47:49.918Z,1033.2
2016-10-24T15:48:49.908Z,1033.21
2016-10-24T15:49:49.898Z,1033.2
2016-10-24T15:50:49.892Z,1033.22
2016-10-24T15:51:49.886Z,1033.26
2016-10-24T15:52:49.875Z,1033.23
2016-10-24T15:53:49.865Z,1033.23
2016-10-24T15:54:49.858Z,1033.25
2016-10-24T15:55:49.851Z,1033.3
2016-10-24T15:56:49.842Z,1033.29
2016-10-24T15:57:49.832Z,1033.25
2016-10-24T15:58:49.822Z,1033.26
2016-10-24T15:59:49.819Z,1033.22
2016-10-24T16:00:49.806Z,1033.22
2016-10-24T16:01:49.797Z,1033.2
2016-10-24T16:02:49.790Z,1033.24
2016-10-24T16:03:49.781Z,1033.24
2016-10-24T16:04:49.771Z,1033.25
2016-10-24T16:05:49.764Z,1033.24
2016-10-24T16:06:49.754Z,1033.31
2016-10-24T16:07:49.746Z,1033.28
2016-10-24T16:08:49.739Z,1033.31
2016-10-24T16:09:49.730Z,1033.33
2016-10-24T16:10:49.718Z,1033.32
2016-10-24T16:11:49.712Z,1033.37
2016-10-24T16:12:49.701Z,1033.36
2016-10-24T16:13:49.695Z,1033.27
2016-10-24T16:14:49.686Z,1033.33
2016-10-24T16:15:49.675Z,1033.32
2016-10-24T16:16:49.670Z,1033.35
2016-10-24T16:17:49.660Z,1033.35
2016-10-24T16:18:49.652Z,1033.37
2016-10-24T16:19:49.641Z,1033.35
2016-10-24T16:20:49.635Z,1033.37
2016-10-24T16:21:49.624Z,1033.38
2016-10-24T16:22:49.616Z,1033.4
2016-10-24T16:23:49.605Z,1033.4
2016-10-24T16:24:49.598Z,1033.41
2016-10-24T16:25:50.566Z,1033.39
2016-10-24T16:26:49.582Z,1033.39
2016-10-24T16:27:49.573Z,1033.38
2016-10-24T16:28:49.565Z,1033.35
2016-10-24T16:29:49.553Z,1033.38
2016-10-24T16:30:49.547Z,1033.38
2016-10-24T16:31:49.539Z,1033.42
2016-10-24T16:32:49.529Z,1033.47
2016-10-24T16:33:49.519Z,1033.43
2016-10-24T16:34:49.513Z,1033.49
2016-10-24T16:35:49.505Z,1033.53
2016-10-24T16:36:49.495Z,1033.44
2016-10-24T16:37:49.488Z,1033.46
2016-10-24T16:38:49.476Z,1033.47
2016-10-24T16:39:49.470Z,1033.46
2016-10-24T16:40:49.461Z,1033.55
2016-10-24T16:41:49.593Z,1033.52
2016-10-24T16:42:49.442Z,1033.52
2016-10-24T16:43:49.433Z,1033.56
2016-10-24T16:44:49.425Z,1033.56
2016-10-24T16:45:49.418Z,1033.54
2016-10-24T16:46:49.409Z,1033.53
2016-10-24T16:47:49.401Z,1033.48
2016-10-24T16:48:49.390Z,1033.5
2016-10-24T16:49:49.384Z,1033.49
2016-10-24T16:50:49.374Z,1033.5
2016-10-24T16:51:49.367Z,1033.49
2016-10-24T16:52:49.358Z,1033.46
2016-10-24T16:53:49.349Z,1033.52
2016-10-24T16:54:49.338Z,1033.53
2016-10-24T16:55:49.331Z,1033.55
2016-10-24T16:56:49.323Z,1033.56
2016-10-24T16:57:49.315Z,1033.6
2016-10-24T16:58:49.303Z,1033.59
2016-10-24T16:59:49.847Z,1033.56
2016-10-24T17:00:49.288Z,1033.49
2016-10-24T17:01:49.277Z,1033.49
2016-10-24T17:02:49.272Z,1033.45
2016-10-24T17:03:49.262Z,1033.45
2016-10-24T17:04:49.254Z,1033.44
2016-10-24T17:05:49.242Z,1033.47
2016-10-24T17:06:49.234Z,1033.46
2016-10-24T17:07:49.379Z,1033.43
2016-10-24T17:08:49.217Z,1033.38
2016-10-24T17:09:49.209Z,1033.38
2016-10-24T17:10:49.199Z,1033.37
2016-10-24T17:11:49.193Z,1033.29
2016-10-24T17:12:49.181Z,1033.26
2016-10-24T17:13:49.175Z,1033.26
2016-10-24T17:14:49.164Z,1033.24
2016-10-24T17:15:49.157Z,1033.25
2016-10-24T17:16:49.150Z,1033.23
2016-10-24T17:17:49.141Z,1033.23
2016-10-24T17:18:49.132Z,1033.21
2016-10-24T17:19:49.121Z,1033.23
2016-10-24T17:20:49.114Z,1033.27
2016-10-24T17:21:49.108Z,1033.29
2016-10-24T17:22:49.095Z,1033.29
2016-10-24T17:23:49.086Z,1033.27
2016-10-24T17:24:49.077Z,1033.27
2016-10-24T17:25:49.071Z,1033.24
2016-10-24T17:26:49.061Z,1033.24
2016-10-24T17:27:49.053Z,1033.22
2016-10-24T17:28:49.045Z,1033.18
2016-10-24T17:29:49.034Z,1033.15
2016-10-24T17:30:49.026Z,1033.13
2016-10-24T17:31:49.020Z,1033.12
2016-10-24T17:32:49.010Z,1033.14
2016-10-24T17:33:49.000Z,1033.2
2016-10-24T17:34:48.993Z,1033.15
2016-10-24T17:35:48.985Z,1033.18
2016-10-24T17:36:48.977Z,1033.18
2016-10-24T17:37:48.967Z,1033.2
2016-10-24T17:38:48.958Z,1033.18
2016-10-24T17:39:48.949Z,1033.18
2016-10-24T17:40:48.941Z,1033.18
2016-10-24T17:41:48.933Z,1033.2
2016-10-24T17:42:48.923Z,1033.21
2016-10-24T17:43:49.925Z,1033.18
2016-10-24T17:44:48.905Z,1033.2
2016-10-24T17:45:48.897Z,1033.18
2016-10-24T17:46:48.888Z,1033.15
2016-10-24T17:47:48.881Z,1033.17
2016-10-24T17:48:48.873Z,1033.16
2016-10-24T17:49:48.863Z,1033.15
2016-10-24T17:50:48.852Z,1033.12
2016-10-24T17:51:48.846Z,1033.11
2016-10-24T17:52:48.839Z,1033.12
2016-10-24T17:53:48.830Z,1033.1
2016-10-24T17:54:48.818Z,1033.11
2016-10-24T17:55:48.812Z,1033.07
2016-10-24T17:56:48.802Z,1033.05
2016-10-24T17:57:48.794Z,1033.12
2016-10-24T17:58:48.785Z,1033.14
2016-10-24T17:59:48.775Z,1033.15
2016-10-24T18:00:48.767Z,1033.15
2016-10-24T18:01:48.760Z,1033.15
2016-10-24T18:02:48.751Z,1033.11
2016-10-24T18:03:48.741Z,1033.12
2016-10-24T18:04:48.734Z,1033.12
2016-10-24T18:05:48.724Z,1033.12
2016-10-24T18:06:48.716Z,1033.11
2016-10-24T18:07:48.707Z,1033.07
2016-10-24T18:08:48.697Z,1033.03
2016-10-24T18:09:48.690Z,1033.03
2016-10-24T18:10:48.681Z,1033.02
2016-10-24T18:11:48.671Z,1033.03
2016-10-24T18:12:48.665Z,1033.07
2016-10-24T18:13:48.654Z,1033.06
2016-10-24T18:14:48.646Z,1033.03
2016-10-24T18:15:48.639Z,1033.05
2016-10-24T18:16:48.632Z,1033.12
2016-10-24T18:17:48.624Z,1033.06
2016-10-24T18:18:48.612Z,1033.06
2016-10-24T18:19:48.604Z,1033.1
2016-10-24T18:20:48.598Z,1033.09
2016-10-24T18:21:48.591Z,1033.12
2016-10-24T18:22:48.579Z,1033.14
2016-10-24T18:23:48.570Z,1033.17
2016-10-24T18:24:48.560Z,1033.11
2016-10-24T18:25:48.551Z,1033.15
2016-10-24T18:26:48.545Z,1033.17
2016-10-24T18:27:48.637Z,1033.16
2016-10-24T18:28:48.779Z,1033.23
2016-10-24T18:29:48.517Z,1033.16
2016-10-24T18:30:48.611Z,1033.15
2016-10-24T18:31:48.500Z,1033.1
2016-10-24T18:32:48.492Z,1033.08
2016-10-24T18:33:48.482Z,1033.08
2016-10-24T18:34:48.474Z,1033.04
2016-10-24T18:35:48.465Z,1033.03
2016-10-24T18:36:48.457Z,1032.99
2016-10-24T18:37:48.449Z,1032.98
2016-10-24T18:38:48.441Z,1032.97
2016-10-24T18:39:48.432Z,1032.99
2016-10-24T18:40:48.424Z,1032.99
2016-10-24T18:41:48.415Z,1032.93
2016-10-24T18:42:48.407Z,1032.94
2016-10-24T18:43:48.396Z,1032.93
2016-10-24T18:44:48.387Z,1032.88
2016-10-24T18:45:48.382Z,1032.9
2016-10-24T18:46:48.371Z,1032.95
2016-10-24T18:47:48.361Z,1032.95
2016-10-24T18:48:48.354Z,1032.99
2016-10-24T18:49:48.347Z,1033.02
2016-10-24T18:50:48.337Z,1033.02
2016-10-24T18:51:48.327Z,1033.02
2016-10-24T18:52:48.321Z,1033.03
2016-10-24T18:53:48.335Z,1032.95
2016-10-24T18:54:48.305Z,1032.96
2016-10-24T18:55:48.293Z,1032.97
2016-10-24T18:56:48.286Z,1032.97
2016-10-24T18:57:48.277Z,1032.92
2016-10-24T18:58:48.267Z,1032.86
2016-10-24T18:59:48.261Z,1032.87
2016-10-24T19:00:48.251Z,1032.87
2016-10-24T19:01:48.670Z,1032.84
2016-10-24T19:02:48.236Z,1032.86
2016-10-24T19:03:49.533Z,1032.88
2016-10-24T19:04:48.220Z,1032.9
2016-10-24T19:05:48.209Z,1032.87
2016-10-24T19:06:48.198Z,1032.79
2016-10-24T19:07:48.193Z,1032.75
2016-10-24T19:08:48.182Z,1032.75
2016-10-24T19:09:48.174Z,1032.83
2016-10-24T19:10:48.164Z,1032.82
2016-10-24T19:11:48.156Z,1032.84
2016-10-24T19:12:48.659Z,1032.85
2016-10-24T19:13:48.139Z,1032.89
2016-10-24T19:14:48.132Z,1032.89
2016-10-24T19:15:48.125Z,1032.94
2016-10-24T19:16:48.117Z,1032.96
2016-10-24T19:17:48.105Z,1032.94
2016-10-24T19:18:48.097Z,1032.93
2016-10-24T19:19:48.090Z,1032.97
2016-10-24T19:20:48.081Z,1032.91
2016-10-24T19:21:48.071Z,1032.89
2016-10-24T19:22:48.063Z,1032.87
2016-10-24T19:23:48.055Z,1032.86
2016-10-24T19:24:48.045Z,1032.73
2016-10-24T19:25:48.037Z,1032.66
2016-10-24T19:26:48.030Z,1032.62
2016-10-24T19:27:48.021Z,1032.62
2016-10-24T19:28:48.012Z,1032.53
2016-10-24T19:29:48.004Z,1032.57
2016-10-24T19:30:47.995Z,1032.56
2016-10-24T19:31:47.986Z,1032.52
2016-10-24T19:32:47.978Z,1032.53
2016-10-24T19:33:47.970Z,1032.56
2016-10-24T19:34:47.961Z,1032.51
2016-10-24T19:35:47.953Z,1032.48
2016-10-24T19:36:47.946Z,1032.47
2016-10-24T19:37:47.938Z,1032.43
2016-10-24T19:38:47.930Z,1032.47
2016-10-24T19:39:47.920Z,1032.5
2016-10-24T19:40:47.911Z,1032.43
2016-10-24T19:41:47.904Z,1032.39
2016-10-24T19:42:47.894Z,1032.39
2016-10-24T19:43:47.886Z,1032.33
2016-10-24T19:44:47.881Z,1032.33
2016-10-24T19:45:48.471Z,1032.35
2016-10-24T19:46:47.860Z,1032.3
2016-10-24T19:47:47.852Z,1032.31
2016-10-24T19:48:47.845Z,1032.32
2016-10-24T19:49:48.438Z,1032.32
2016-10-24T19:50:47.829Z,1032.24
2016-10-24T19:51:47.819Z,1032.24
2016-10-24T19:52:47.813Z,1032.22
2016-10-24T19:53:47.804Z,1032.19
2016-10-24T19:54:47.793Z,1032.13
2016-10-24T19:55:47.788Z,1032.07
2016-10-24T19:56:47.777Z,1031.97
2016-10-24T19:57:47.770Z,1031.95
2016-10-24T19:58:47.761Z,1031.96
2016-10-24T19:59:47.755Z,1031.97
2016-10-24T20:00:47.747Z,1031.95
2016-10-24T20:01:47.736Z,1031.97
2016-10-24T20:02:47.727Z,1031.88
2016-10-24T20:03:47.720Z,1031.87
2016-10-24T20:04:47.710Z,1031.85
2016-10-24T20:05:47.702Z,1031.86
2016-10-24T20:06:47.696Z,1031.88
2016-10-24T20:07:47.684Z,1031.83
2016-10-24T20:08:47.677Z,1031.85
2016-10-24T20:09:47.669Z,1031.82
2016-10-24T20:10:47.660Z,1031.76
2016-10-24T20:11:47.652Z,1031.78
2016-10-24T20:12:47.642Z,1031.77
2016-10-24T20:13:47.636Z,1031.82
2016-10-24T20:14:47.628Z,1031.84
2016-10-24T20:15:47.619Z,1031.91
2016-10-24T20:16:47.608Z,1031.97
2016-10-24T20:17:47.602Z,1031.95
2016-10-24T20:18:47.594Z,1032
2016-10-24T20:19:47.656Z,1032
2016-10-24T20:20:48.169Z,1031.99
2016-10-24T20:21:47.569Z,1031.96
2016-10-24T20:22:47.559Z,1031.98
2016-10-24T20:23:47.551Z,1031.98
2016-10-24T20:24:47.543Z,1032
2016-10-24T20:25:47.944Z,1032.06
2016-10-24T20:26:47.524Z,1032.06
2016-10-24T20:27:47.518Z,1032.03
2016-10-24T20:28:47.509Z,1032.02
2016-10-24T20:29:47.503Z,1032.02
2016-10-24T20:30:47.490Z,1032.02
2016-10-24T20:31:47.484Z,1031.97
2016-10-24T20:32:47.474Z,1031.95
2016-10-24T20:33:47.466Z,1031.97
2016-10-24T20:34:47.460Z,1032
2016-10-24T20:35:47.452Z,1031.98
2016-10-24T20:36:47.442Z,1031.99
2016-10-24T20:37:47.435Z,1032
2016-10-24T20:38:47.426Z,1031.99
2016-10-24T20:39:47.418Z,1031.99
2016-10-24T20:40:47.408Z,1031.96
2016-10-24T20:41:47.402Z,1031.94
2016-10-24T20:42:47.394Z,1031.89
2016-10-24T20:43:47.383Z,1031.94
2016-10-24T20:44:47.375Z,1031.96
2016-10-24T20:45:47.369Z,1032
2016-10-24T20:46:47.358Z,1032.04
2016-10-24T20:47:47.352Z,1032.01
2016-10-24T20:48:47.342Z,1032
2016-10-24T20:49:47.333Z,1032.05
2016-10-24T20:50:47.327Z,1032.02
2016-10-24T20:51:47.319Z,1032.04
2016-10-24T20:52:47.308Z,1032.09
2016-10-24T20:53:47.302Z,1032.09
2016-10-24T20:54:47.295Z,1032.15
2016-10-24T20:55:47.636Z,1032.2
2016-10-24T20:56:47.277Z,1032.25
2016-10-24T20:57:47.270Z,1032.33
2016-10-24T20:58:47.263Z,1032.33
2016-10-24T20:59:47.352Z,1032.38
2016-10-24T21:00:47.245Z,1032.38
2016-10-24T21:01:47.235Z,1032.41
2016-10-24T21:02:47.229Z,1032.39
2016-10-24T21:03:47.722Z,1032.37
2016-10-24T21:04:47.213Z,1032.31
2016-10-24T21:05:47.205Z,1032.31
2016-10-24T21:06:47.196Z,1032.31
2016-10-24T21:07:47.189Z,1032.33
2016-10-24T21:08:47.178Z,1032.35
2016-10-24T21:09:47.221Z,1032.38
2016-10-24T21:10:47.161Z,1032.36
2016-10-24T21:11:47.157Z,1032.39
2016-10-24T21:12:47.147Z,1032.36
2016-10-24T21:13:47.142Z,1032.34
2016-10-24T21:14:47.133Z,1032.36
2016-10-24T21:15:47.125Z,1032.33
2016-10-24T21:16:47.116Z,1032.37
2016-10-24T21:17:47.105Z,1032.37
2016-10-24T21:18:47.099Z,1032.35
2016-10-24T21:19:47.091Z,1032.31
2016-10-24T21:20:47.082Z,1032.24
2016-10-24T21:21:47.076Z,1032.19
2016-10-24T21:22:47.067Z,1032.21
2016-10-24T21:23:47.060Z,1032.16
2016-10-24T21:24:47.052Z,1032.16
2016-10-24T21:25:47.044Z,1032.16
2016-10-24T21:26:47.037Z,1032.12
2016-10-24T21:27:47.029Z,1032.18
2016-10-24T21:28:47.021Z,1032.19
2016-10-24T21:29:47.010Z,1032.17
2016-10-24T21:30:47.003Z,1032.08
2016-10-24T21:31:46.994Z,1032.04
2016-10-24T21:32:46.987Z,1032.04
2016-10-24T21:33:46.980Z,1031.98
2016-10-24T21:34:46.970Z,1032.04
2016-10-24T21:35:46.965Z,1032.07
2016-10-24T21:36:46.954Z,1032.01
2016-10-24T21:37:46.949Z,1032.02
2016-10-24T21:38:47.431Z,1032.03
2016-10-24T21:39:46.929Z,1032.03
2016-10-24T21:40:46.924Z,1032.04